sensor_id;sensor_type;location;lat;lon;timestamp;pressure;altitude;pressure_sealevel;temperature;humidity
64243;BME280;50573;51.512;5.386;2022-08-19T00:04:48;101239.75;;;16.63;100.00
64243;BME280;50573;51.512;5.386;2022-08-19T00:14:55;101223.50;;;16.50;100.00
64243;BME280;50573;51.512;5.386;2022-08-19T00:24:58;101217.66;;;16.42;100.00
64243;BME280;50573;51.512;5.386;2022-08-19T00:35:05;101222.97;;;16.36;100.00
64243;BME280;50573;51.512;5.386;2022-08-19T00:45:11;101232.75;;;16.27;100.00
64243;BME280;50573;51.512;5.386;2022-08-19T00:55:18;101237.75;;;16.37;100.00
64243;BME280;50573;51.512;5.386;2022-08-19T01:05:24;101230.72;;;16.39;100.00
64243;BME280;50573;51.512;5.386;2022-08-19T01:15:33;101239.69;;;16.27;100.00
64243;BME280;50573;51.512;5.386;2022-08-19T01:25:42;101225.84;;;16.25;100.00
64243;BME280;50573;51.512;5.386;2022-08-19T01:35:47;101231.06;;;16.25;100.00
64243;BME280;50573;51.512;5.386;2022-08-19T01:45:53;101231.09;;;16.23;100.00
64243;BME280;50573;51.512;5.386;2022-08-19T01:55:56;101232.03;;;16.21;100.00
64243;BME280;50573;51.512;5.386;2022-08-19T02:06:02;101229.63;;;16.11;100.00
64243;BME280;50573;51.512;5.386;2022-08-19T02:16:06;101243.69;;;16.04;100.00
64243;BME280;50573;51.512;5.386;2022-08-19T02:26:11;101246.47;;;15.96;100.00
64243;BME280;50573;51.512;5.386;2022-08-19T02:36:16;101260.59;;;15.86;100.00
64243;BME280;50573;51.512;5.386;2022-08-19T02:46:25;101260.69;;;15.82;100.00
64243;BME280;50573;51.512;5.386;2022-08-19T02:56:28;101267.00;;;15.70;100.00
64243;BME280;50573;51.512;5.386;2022-08-19T03:06:35;101261.28;;;15.51;100.00
64243;BME280;50573;51.512;5.386;2022-08-19T03:16:41;101265.09;;;15.33;100.00
64243;BME280;50573;51.512;5.386;2022-08-19T03:26:49;101264.34;;;15.26;100.00
64243;BME280;50573;51.512;5.386;2022-08-19T03:36:53;101265.28;;;15.23;100.00
64243;BME280;50573;51.512;5.386;2022-08-19T03:46:59;101248.13;;;15.12;100.00
64243;BME280;50573;51.512;5.386;2022-08-19T03:57:02;101249.94;;;15.06;100.00
64243;BME280;50573;51.512;5.386;2022-08-19T04:07:08;101253.50;;;15.01;100.00
64243;BME280;50573;51.512;5.386;2022-08-19T04:17:12;101247.59;;;14.92;100.00
64243;BME280;50573;51.512;5.386;2022-08-19T04:27:16;101254.47;;;14.95;100.00
64243;BME280;50573;51.512;5.386;2022-08-19T04:37:19;101242.31;;;14.97;100.00
64243;BME280;50573;51.512;5.386;2022-08-19T04:47:24;101242.34;;;14.96;100.00
64243;BME280;50573;51.512;5.386;2022-08-19T04:57:47;101263.13;;;14.97;100.00
64243;BME280;50573;51.512;5.386;2022-08-19T05:07:51;101275.25;;;14.97;100.00
64243;BME280;50573;51.512;5.386;2022-08-19T05:17:55;101283.06;;;14.98;100.00
64243;BME280;50573;51.512;5.386;2022-08-19T05:28:17;101300.13;;;15.16;100.00
64243;BME280;50573;51.512;5.386;2022-08-19T05:38:21;101314.50;;;15.37;100.00
64243;BME280;50573;51.512;5.386;2022-08-19T05:48:25;101309.81;;;15.56;100.00
64243;BME280;50573;51.512;5.386;2022-08-19T05:58:28;101318.97;;;15.77;100.00
64243;BME280;50573;51.512;5.386;2022-08-19T06:08:32;101290.00;;;15.93;100.00
64243;BME280;50573;51.512;5.386;2022-08-19T06:18:36;101296.63;;;16.09;100.00
64243;BME280;50573;51.512;5.386;2022-08-19T06:28:41;101286.59;;;16.31;100.00
64243;BME280;50573;51.512;5.386;2022-08-19T06:38:48;101285.19;;;16.54;100.00
64243;BME280;50573;51.512;5.386;2022-08-19T06:48:52;101294.09;;;16.81;100.00
64243;BME280;50573;51.512;5.386;2022-08-19T06:58:56;101290.63;;;17.17;100.00
64243;BME280;50573;51.512;5.386;2022-08-19T07:09:01;101286.25;;;17.50;100.00
64243;BME280;50573;51.512;5.386;2022-08-19T07:19:04;101284.19;;;17.95;100.00
64243;BME280;50573;51.512;5.386;2022-08-19T07:29:19;101303.22;;;18.56;100.00
64243;BME280;50573;51.512;5.386;2022-08-19T07:39:31;101305.03;;;19.09;98.12
64243;BME280;50573;51.512;5.386;2022-08-19T07:49:36;101325.75;;;19.68;97.11
64243;BME280;50573;51.512;5.386;2022-08-19T07:59:40;101337.97;;;19.67;94.51
64243;BME280;50573;51.512;5.386;2022-08-19T08:09:45;101330.50;;;19.56;93.39
64243;BME280;50573;51.512;5.386;2022-08-19T08:19:50;101336.06;;;19.47;94.25
64243;BME280;50573;51.512;5.386;2022-08-19T08:29:55;101348.84;;;19.56;94.90
64243;BME280;50573;51.512;5.386;2022-08-19T08:39:58;101353.16;;;20.08;91.13
64243;BME280;50573;51.512;5.386;2022-08-19T08:50:06;101360.50;;;20.22;89.24
64243;BME280;50573;51.512;5.386;2022-08-19T09:00:23;101365.34;;;20.09;90.57
64243;BME280;50573;51.512;5.386;2022-08-19T09:10:38;101356.50;;;20.57;89.38
64243;BME280;50573;51.512;5.386;2022-08-19T09:20:46;101364.66;;;20.95;86.04
64243;BME280;50573;51.512;5.386;2022-08-19T09:30:51;101371.88;;;20.68;86.61
64243;BME280;50573;51.512;5.386;2022-08-19T09:40:54;101375.97;;;20.75;86.35
64243;BME280;50573;51.512;5.386;2022-08-19T09:51:05;101377.56;;;20.79;85.58
64243;BME280;50573;51.512;5.386;2022-08-19T10:01:16;101376.28;;;20.90;86.31
64243;BME280;50573;51.512;5.386;2022-08-19T10:11:22;101391.66;;;20.99;85.38
64243;BME280;50573;51.512;5.386;2022-08-19T10:21:32;101373.88;;;21.48;83.58
64243;BME280;50573;51.512;5.386;2022-08-19T10:31:37;101370.72;;;22.00;80.80
64243;BME280;50573;51.512;5.386;2022-08-19T10:42:04;101380.41;;;22.19;78.48
64243;BME280;50573;51.512;5.386;2022-08-19T10:52:09;101367.13;;;22.41;78.18
64243;BME280;50573;51.512;5.386;2022-08-19T11:02:33;101355.28;;;22.69;76.31
64243;BME280;50573;51.512;5.386;2022-08-19T11:12:38;101355.69;;;22.78;75.68
64243;BME280;50573;51.512;5.386;2022-08-19T11:22:48;101360.38;;;23.08;73.49
64243;BME280;50573;51.512;5.386;2022-08-19T11:32:56;101345.16;;;23.66;71.51
64243;BME280;50573;51.512;5.386;2022-08-19T11:43:00;101341.63;;;23.65;69.58
64243;BME280;50573;51.512;5.386;2022-08-19T11:53:14;101334.59;;;24.47;69.00
64243;BME280;50573;51.512;5.386;2022-08-19T12:03:17;101331.44;;;24.57;67.94
64243;BME280;50573;51.512;5.386;2022-08-19T12:13:22;101343.81;;;23.75;69.39
64243;BME280;50573;51.512;5.386;2022-08-19T12:23:26;101337.09;;;23.52;72.21
64243;BME280;50573;51.512;5.386;2022-08-19T12:33:31;101330.28;;;23.47;72.74
64243;BME280;50573;51.512;5.386;2022-08-19T12:43:35;101317.47;;;24.07;70.00
64243;BME280;50573;51.512;5.386;2022-08-19T12:53:40;101311.88;;;23.79;69.89
64243;BME280;50573;51.512;5.386;2022-08-19T13:03:45;101314.16;;;23.70;71.40
64243;BME280;50573;51.512;5.386;2022-08-19T13:13:53;101295.66;;;23.87;72.06
64243;BME280;50573;51.512;5.386;2022-08-19T13:23:57;101305.28;;;24.04;72.52
64243;BME280;50573;51.512;5.386;2022-08-19T13:34:02;101293.97;;;24.02;71.90
64243;BME280;50573;51.512;5.386;2022-08-19T13:44:06;101288.94;;;23.97;72.30
64243;BME280;50573;51.512;5.386;2022-08-19T13:54:12;101283.19;;;23.73;73.50
64243;BME280;50573;51.512;5.386;2022-08-19T14:04:14;101278.13;;;23.53;74.98
64243;BME280;50573;51.512;5.386;2022-08-19T14:14:19;101273.16;;;24.28;72.25
64243;BME280;50573;51.512;5.386;2022-08-19T14:24:22;101260.34;;;25.70;66.95
64243;BME280;50573;51.512;5.386;2022-08-19T14:34:27;101248.97;;;25.83;65.32
64243;BME280;50573;51.512;5.386;2022-08-19T14:44:30;101243.56;;;25.99;64.45
64243;BME280;50573;51.512;5.386;2022-08-19T14:54:37;101252.63;;;25.38;65.74
64243;BME280;50573;51.512;5.386;2022-08-19T15:04:43;101254.09;;;25.28;67.07
64243;BME280;50573;51.512;5.386;2022-08-19T15:15:01;101253.00;;;25.47;67.37
64243;BME280;50573;51.512;5.386;2022-08-19T15:25:07;101254.59;;;25.64;66.64
64243;BME280;50573;51.512;5.386;2022-08-19T15:35:14;101261.03;;;24.86;67.58
64243;BME280;50573;51.512;5.386;2022-08-19T15:45:21;101255.25;;;24.49;68.53
64243;BME280;50573;51.512;5.386;2022-08-19T15:55:30;101274.94;;;23.79;73.99
64243;BME280;50573;51.512;5.386;2022-08-19T16:05:36;101277.50;;;23.14;79.59
64243;BME280;50573;51.512;5.386;2022-08-19T16:15:58;101283.03;;;22.55;84.04
64243;BME280;50573;51.512;5.386;2022-08-19T16:26:01;101277.25;;;21.91;86.96
64243;BME280;50573;51.512;5.386;2022-08-19T16:36:06;101290.88;;;21.62;88.04
64243;BME280;50573;51.512;5.386;2022-08-19T16:46:10;101287.97;;;21.47;89.50
64243;BME280;50573;51.512;5.386;2022-08-19T16:56:20;101309.84;;;21.48;90.54
64243;BME280;50573;51.512;5.386;2022-08-19T17:06:29;101334.53;;;21.04;100.00
64243;BME280;50573;51.512;5.386;2022-08-19T17:16:37;101331.78;;;20.63;100.00
64243;BME280;50573;51.512;5.386;2022-08-19T17:26:43;101329.56;;;20.76;100.00
64243;BME280;50573;51.512;5.386;2022-08-19T17:36:49;101329.56;;;20.76;100.00
64243;BME280;50573;51.512;5.386;2022-08-19T17:47:01;101323.69;;;20.69;100.00
64243;BME280;50573;51.512;5.386;2022-08-19T17:57:10;101325.19;;;20.52;100.00
64243;BME280;50573;51.512;5.386;2022-08-19T18:07:18;101323.88;;;20.18;100.00
64243;BME280;50573;51.512;5.386;2022-08-19T18:17:27;101324.97;;;19.89;100.00
64243;BME280;50573;51.512;5.386;2022-08-19T18:27:33;101353.66;;;19.69;100.00
64243;BME280;50573;51.512;5.386;2022-08-19T18:37:39;101370.00;;;19.52;100.00
64243;BME280;50573;51.512;5.386;2022-08-19T18:47:42;101378.25;;;19.39;100.00
64243;BME280;50573;51.512;5.386;2022-08-19T18:58:04;101383.13;;;19.25;100.00
64243;BME280;50573;51.512;5.386;2022-08-19T19:08:07;101390.38;;;19.17;100.00
64243;BME280;50573;51.512;5.386;2022-08-19T19:18:11;101395.97;;;19.06;100.00
64243;BME280;50573;51.512;5.386;2022-08-19T19:28:15;101395.41;;;18.96;100.00
64243;BME280;50573;51.512;5.386;2022-08-19T19:38:19;101408.66;;;18.91;100.00
64243;BME280;50573;51.512;5.386;2022-08-19T19:48:22;101413.91;;;18.91;100.00
64243;BME280;50573;51.512;5.386;2022-08-19T19:58:30;101412.09;;;18.93;100.00
64243;BME280;50573;51.512;5.386;2022-08-19T20:08:35;101418.28;;;18.91;100.00
64243;BME280;50573;51.512;5.386;2022-08-19T20:18:59;101422.81;;;18.86;100.00
64243;BME280;50573;51.512;5.386;2022-08-19T20:29:02;101422.13;;;18.79;100.00
64243;BME280;50573;51.512;5.386;2022-08-19T20:39:27;101430.81;;;18.79;100.00
64243;BME280;50573;51.512;5.386;2022-08-19T20:49:30;101431.75;;;18.77;100.00
64243;BME280;50573;51.512;5.386;2022-08-19T20:59:35;101441.34;;;18.78;100.00
64243;BME280;50573;51.512;5.386;2022-08-19T21:09:38;101426.47;;;18.78;100.00
64243;BME280;50573;51.512;5.386;2022-08-19T21:19:42;101432.69;;;18.76;100.00
64243;BME280;50573;51.512;5.386;2022-08-19T21:29:45;101421.44;;;18.72;100.00
64243;BME280;50573;51.512;5.386;2022-08-19T21:39:50;101424.63;;;18.54;100.00
64243;BME280;50573;51.512;5.386;2022-08-19T21:49:53;101439.97;;;18.36;100.00
64243;BME280;50573;51.512;5.386;2022-08-19T21:59:57;101434.25;;;18.22;100.00
64243;BME280;50573;51.512;5.386;2022-08-19T22:10:02;101446.75;;;18.12;100.00
64243;BME280;50573;51.512;5.386;2022-08-19T22:20:09;101435.41;;;18.12;100.00
64243;BME280;50573;51.512;5.386;2022-08-19T22:30:14;101440.59;;;18.13;100.00
64243;BME280;50573;51.512;5.386;2022-08-19T22:40:20;101437.88;;;18.16;100.00
64243;BME280;50573;51.512;5.386;2022-08-19T22:50:23;101439.44;;;18.23;100.00
64243;BME280;50573;51.512;5.386;2022-08-19T23:00:28;101450.59;;;18.30;100.00
64243;BME280;50573;51.512;5.386;2022-08-19T23:10:31;101466.19;;;18.35;100.00
64243;BME280;50573;51.512;5.386;2022-08-19T23:20:37;101454.91;;;18.33;100.00
64243;BME280;50573;51.512;5.386;2022-08-19T23:30:43;101448.00;;;18.30;100.00
64243;BME280;50573;51.512;5.386;2022-08-19T23:40:48;101436.69;;;18.28;100.00
64243;BME280;50573;51.512;5.386;2022-08-19T23:50:52;101436.69;;;18.28;100.00
